createdAt,value
2023-07-27T00:00:18.354Z,10.15
2023-07-27T00:01:18.382Z,10.16
2023-07-27T00:02:18.325Z,10.13
2023-07-27T00:03:18.336Z,10.26
2023-07-27T00:04:18.314Z,10.15
2023-07-27T00:05:18.256Z,10.15
2023-07-27T00:06:18.261Z,10.13
2023-07-27T00:07:18.274Z,10.25
2023-07-27T00:08:18.250Z,10.31
2023-07-27T00:09:18.237Z,10.22
2023-07-27T00:10:18.241Z,10.22
2023-07-27T00:11:18.233Z,10.37
2023-07-27T00:12:18.229Z,10.25
2023-07-27T00:13:18.211Z,10.31
2023-07-27T00:14:18.256Z,10.34
2023-07-27T00:15:18.180Z,10.25
2023-07-27T00:16:18.241Z,10.22
2023-07-27T00:17:18.194Z,10.26
2023-07-27T00:18:18.196Z,10.20
2023-07-27T00:19:18.178Z,10.12
2023-07-27T00:20:18.159Z,10.12
2023-07-27T00:21:18.141Z,10.19
2023-07-27T00:22:18.156Z,10.16
2023-07-27T00:23:18.146Z,10.05
2023-07-27T00:24:18.148Z,10.13
2023-07-27T00:25:18.137Z,10.20
2023-07-27T00:26:18.140Z,10.15
2023-07-27T00:27:18.127Z,10.04
2023-07-27T00:28:18.093Z,10.01
2023-07-27T00:29:18.071Z,10.07
2023-07-27T00:30:18.100Z,10.07
2023-07-27T00:31:18.125Z,10.05
2023-07-27T00:32:18.086Z,10.05
2023-07-27T00:33:18.066Z,10.05
2023-07-27T00:34:18.048Z,10.04
2023-07-27T00:35:18.034Z,10.13
2023-07-27T00:36:18.032Z,10.13
2023-07-27T00:37:18.015Z,10.10
2023-07-27T00:38:18.012Z,10.16
2023-07-27T00:39:18.114Z,10.22
2023-07-27T00:40:18.022Z,10.16
2023-07-27T00:41:17.984Z,10.25
2023-07-27T00:42:17.987Z,10.25
2023-07-27T00:43:17.998Z,10.25
2023-07-27T00:44:18.006Z,10.22
2023-07-27T00:45:17.983Z,10.22
2023-07-27T00:46:18.011Z,10.19
2023-07-27T00:47:17.954Z,10.25
2023-07-27T00:48:17.943Z,10.25
2023-07-27T00:49:17.955Z,10.31
2023-07-27T00:50:17.924Z,10.35
2023-07-27T00:51:17.909Z,10.37
2023-07-27T00:52:17.920Z,10.30
2023-07-27T00:53:17.890Z,10.33
2023-07-27T00:54:17.922Z,10.37
2023-07-27T00:55:17.875Z,10.40
2023-07-27T00:56:17.884Z,10.48
2023-07-27T00:57:17.879Z,10.53
2023-07-27T00:58:17.856Z,10.42
2023-07-27T00:59:17.858Z,10.40
2023-07-27T01:00:17.876Z,10.42
2023-07-27T01:01:17.859Z,10.41
2023-07-27T01:02:17.839Z,10.48
2023-07-27T01:03:17.912Z,10.37
2023-07-27T01:04:17.858Z,10.49
2023-07-27T01:05:17.787Z,10.49
2023-07-27T01:06:17.807Z,10.54
2023-07-27T01:07:17.765Z,10.46
2023-07-27T01:08:17.787Z,10.53
2023-07-27T01:09:17.754Z,10.57
2023-07-27T01:10:17.794Z,10.53
2023-07-27T01:11:17.753Z,10.48
2023-07-27T01:12:17.753Z,10.61
2023-07-27T01:13:17.759Z,10.41
2023-07-27T01:14:17.740Z,10.57
2023-07-27T01:15:17.726Z,10.69
2023-07-27T01:16:17.754Z,10.61
2023-07-27T01:17:17.702Z,10.67
2023-07-27T01:18:17.702Z,10.49
2023-07-27T01:19:17.702Z,10.56
2023-07-27T01:20:17.718Z,10.56
2023-07-27T01:21:17.663Z,10.57
2023-07-27T01:22:17.682Z,10.64
2023-07-27T01:23:17.673Z,10.54
2023-07-27T01:24:17.763Z,10.48
2023-07-27T01:25:17.686Z,10.53
2023-07-27T01:26:17.669Z,10.49
2023-07-27T01:27:17.622Z,10.38
2023-07-27T01:28:17.639Z,10.49
2023-07-27T01:29:17.633Z,10.61
2023-07-27T01:30:17.650Z,10.56
2023-07-27T01:31:17.684Z,10.42
2023-07-27T01:32:17.608Z,10.49
2023-07-27T01:33:17.577Z,10.53
2023-07-27T01:34:17.618Z,10.61
2023-07-27T01:35:17.574Z,10.54
2023-07-27T01:36:17.584Z,10.64
2023-07-27T01:37:17.593Z,10.63
2023-07-27T01:38:17.580Z,10.64
2023-07-27T01:39:17.550Z,10.56
2023-07-27T01:40:17.560Z,10.57
2023-07-27T01:41:17.545Z,10.60
2023-07-27T01:42:17.534Z,10.53
2023-07-27T01:43:17.517Z,10.67
2023-07-27T01:44:17.545Z,10.71
2023-07-27T01:45:17.492Z,10.79
2023-07-27T01:46:17.516Z,10.79
2023-07-27T01:47:17.502Z,10.75
2023-07-27T01:48:17.475Z,10.75
2023-07-27T01:49:17.493Z,10.76
2023-07-27T01:50:17.467Z,10.69
2023-07-27T01:51:17.441Z,10.67
2023-07-27T01:52:17.464Z,10.48
2023-07-27T01:53:17.425Z,10.42
2023-07-27T01:54:17.432Z,10.41
2023-07-27T01:55:17.452Z,10.33
2023-07-27T01:56:17.422Z,10.41
2023-07-27T01:57:17.413Z,10.37
2023-07-27T01:58:17.541Z,10.30
2023-07-27T01:59:17.384Z,10.35
2023-07-27T02:00:17.411Z,10.31
2023-07-27T02:01:17.396Z,10.30
2023-07-27T02:02:17.367Z,10.35
2023-07-27T02:03:17.347Z,10.22
2023-07-27T02:04:17.429Z,10.30
2023-07-27T02:05:17.433Z,10.07
2023-07-27T02:06:17.350Z,10.09
2023-07-27T02:07:17.330Z,10.15
2023-07-27T02:08:17.357Z,10.10
2023-07-27T02:09:17.333Z,10.10
2023-07-27T02:10:17.325Z,10.13
2023-07-27T02:11:17.313Z,10.05
2023-07-27T02:12:17.286Z,10.01
2023-07-27T02:13:17.253Z,10.05
2023-07-27T02:14:17.361Z,9.87
2023-07-27T02:15:17.272Z,10.04
2023-07-27T02:16:17.318Z,10.05
2023-07-27T02:17:17.249Z,9.97
2023-07-27T02:18:17.265Z,9.97
2023-07-27T02:19:17.217Z,9.99
2023-07-27T02:20:17.252Z,10.02
2023-07-27T02:21:17.203Z,9.86
2023-07-27T02:22:17.237Z,10.01
2023-07-27T02:23:18.061Z,9.89
2023-07-27T02:24:17.249Z,9.89
2023-07-27T02:25:17.183Z,9.92
2023-07-27T02:26:17.186Z,9.94
2023-07-27T02:27:17.181Z,9.94
2023-07-27T02:28:17.194Z,9.89
2023-07-27T02:29:17.152Z,9.89
2023-07-27T02:30:17.178Z,9.99
2023-07-27T02:31:17.158Z,10.05
2023-07-27T02:32:17.165Z,10.01
2023-07-27T02:33:17.133Z,10.04
2023-07-27T02:34:17.123Z,9.92
2023-07-27T02:35:17.125Z,9.97
2023-07-27T02:36:17.161Z,10.01
2023-07-27T02:37:17.092Z,10.05
2023-07-27T02:38:17.116Z,10.02
2023-07-27T02:39:17.078Z,10.01
2023-07-27T02:40:17.077Z,9.91
2023-07-27T02:41:17.041Z,9.92
2023-07-27T02:42:17.083Z,9.99
2023-07-27T02:43:17.037Z,9.91
2023-07-27T02:44:17.074Z,9.87
2023-07-27T02:45:17.071Z,9.92
2023-07-27T02:46:17.017Z,9.84
2023-07-27T02:47:16.995Z,9.83
2023-07-27T02:48:17.000Z,9.83
2023-07-27T02:49:16.996Z,9.84
2023-07-27T02:50:17.003Z,9.84
2023-07-27T02:51:16.989Z,9.87
2023-07-27T02:52:16.972Z,9.86
2023-07-27T02:53:16.953Z,9.92
2023-07-27T02:54:16.976Z,9.92
2023-07-27T02:55:16.945Z,9.99
2023-07-27T02:56:16.957Z,9.97
2023-07-27T02:57:16.943Z,9.98
2023-07-27T02:58:16.933Z,9.98
2023-07-27T02:59:16.911Z,10.05
2023-07-27T03:00:16.934Z,9.92
2023-07-27T03:01:16.952Z,9.89
2023-07-27T03:02:16.941Z,9.94
2023-07-27T03:03:16.989Z,9.97
2023-07-27T03:04:16.907Z,9.94
2023-07-27T03:05:16.875Z,9.80
2023-07-27T03:06:16.871Z,9.82
2023-07-27T03:07:16.860Z,9.87
2023-07-27T03:08:16.866Z,9.77
2023-07-27T03:09:16.868Z,9.89
2023-07-27T03:10:16.837Z,9.92
2023-07-27T03:11:16.808Z,9.94
2023-07-27T03:12:16.825Z,9.87
2023-07-27T03:13:16.851Z,9.91
2023-07-27T03:14:16.800Z,9.92
2023-07-27T03:15:16.783Z,9.79
2023-07-27T03:16:16.858Z,9.87
2023-07-27T03:17:16.820Z,9.89
2023-07-27T03:18:16.777Z,9.98
2023-07-27T03:19:16.765Z,9.95
2023-07-27T03:20:16.782Z,10.02
2023-07-27T03:21:19.369Z,9.95
2023-07-27T03:22:16.785Z,10.04
2023-07-27T03:23:16.731Z,9.98
2023-07-27T03:24:16.736Z,10.01
2023-07-27T03:25:16.739Z,9.98
2023-07-27T03:26:16.708Z,9.99
2023-07-27T03:27:16.691Z,10.12
2023-07-27T03:28:16.700Z,10.19
2023-07-27T03:29:16.661Z,10.17
2023-07-27T03:30:16.694Z,10.31
2023-07-27T03:31:16.755Z,10.31
2023-07-27T03:32:16.681Z,10.33
2023-07-27T03:33:16.633Z,10.23
2023-07-27T03:34:16.647Z,10.23
2023-07-27T03:35:16.608Z,10.16
2023-07-27T03:36:16.650Z,10.10
2023-07-27T03:37:16.593Z,10.10
2023-07-27T03:38:16.633Z,10.15
2023-07-27T03:39:16.603Z,10.12
2023-07-27T03:40:16.594Z,10.19
2023-07-27T03:41:16.614Z,10.19
2023-07-27T03:42:16.584Z,10.13
2023-07-27T03:43:16.559Z,10.07
2023-07-27T03:44:16.558Z,10.13
2023-07-27T03:45:16.528Z,10.15
2023-07-27T03:46:16.578Z,10.16
2023-07-27T03:47:16.528Z,10.15
2023-07-27T03:48:16.536Z,10.16
2023-07-27T03:49:16.502Z,10.17
2023-07-27T03:50:16.522Z,10.16
2023-07-27T03:51:16.537Z,10.22
2023-07-27T03:52:16.505Z,10.22
2023-07-27T03:53:17.570Z,10.28
2023-07-27T03:54:16.498Z,10.25
2023-07-27T03:55:16.474Z,10.38
2023-07-27T03:56:16.463Z,10.41
2023-07-27T03:57:16.489Z,10.48
2023-07-27T03:58:16.470Z,10.35
2023-07-27T03:59:16.430Z,10.38
2023-07-27T04:00:16.496Z,10.46
2023-07-27T04:01:16.407Z,10.51
2023-07-27T04:02:16.515Z,10.31
2023-07-27T04:03:16.405Z,10.38
2023-07-27T04:04:16.408Z,10.33
2023-07-27T04:05:16.384Z,10.35
2023-07-27T04:06:16.410Z,10.41
2023-07-27T04:07:16.375Z,10.42
2023-07-27T04:08:16.377Z,10.31
2023-07-27T04:09:16.377Z,10.48
2023-07-27T04:10:16.372Z,10.46
2023-07-27T04:11:16.351Z,10.57
2023-07-27T04:12:16.350Z,10.46
2023-07-27T04:13:16.311Z,10.61
2023-07-27T04:14:16.335Z,10.54
2023-07-27T04:15:16.318Z,10.54
2023-07-27T04:16:16.359Z,10.56
2023-07-27T04:17:16.348Z,10.60
2023-07-27T04:18:16.388Z,10.68
2023-07-27T04:19:16.316Z,10.63
2023-07-27T04:20:16.300Z,10.81
2023-07-27T04:21:16.285Z,10.82
2023-07-27T04:22:16.271Z,10.84
2023-07-27T04:23:16.232Z,10.90
2023-07-27T04:24:16.273Z,10.87
2023-07-27T04:25:16.227Z,10.99
2023-07-27T04:26:16.228Z,11.05
2023-07-27T04:27:16.249Z,11.04
2023-07-27T04:28:16.211Z,11.05
2023-07-27T04:29:16.216Z,11.02
2023-07-27T04:30:16.205Z,10.99
2023-07-27T04:31:16.285Z,11.14
2023-07-27T04:32:17.545Z,11.26
2023-07-27T04:33:16.167Z,11.29
2023-07-27T04:34:16.177Z,11.36
2023-07-27T04:35:16.165Z,11.29
2023-07-27T04:36:16.172Z,11.30
2023-07-27T04:37:16.150Z,11.37
2023-07-27T04:38:16.137Z,11.45
2023-07-27T04:39:16.111Z,11.41
2023-07-27T04:40:16.184Z,11.52
2023-07-27T04:41:16.089Z,11.68
2023-07-27T04:42:16.090Z,11.73
2023-07-27T04:43:16.101Z,11.69
2023-07-27T04:44:16.085Z,11.73
2023-07-27T04:45:16.061Z,11.63
2023-07-27T04:46:16.142Z,11.66
2023-07-27T04:47:16.038Z,11.59
2023-07-27T04:48:16.072Z,11.66
2023-07-27T04:49:16.076Z,11.73
2023-07-27T04:50:16.051Z,11.84
2023-07-27T04:51:16.012Z,11.87
2023-07-27T04:52:16.062Z,11.77
2023-07-27T04:53:16.003Z,11.90
2023-07-27T04:54:16.026Z,11.77
2023-07-27T04:55:15.980Z,11.66
2023-07-27T04:56:15.991Z,11.70
2023-07-27T04:57:15.962Z,11.77
2023-07-27T04:58:15.992Z,11.83
2023-07-27T04:59:15.979Z,11.87
2023-07-27T05:00:15.981Z,11.94
2023-07-27T05:01:15.977Z,12.10
2023-07-27T05:02:16.069Z,12.12
2023-07-27T05:03:15.971Z,12.17
2023-07-27T05:04:15.945Z,12.21
2023-07-27T05:05:15.899Z,12.27
2023-07-27T05:06:15.903Z,12.17
2023-07-27T05:07:15.887Z,12.15
2023-07-27T05:08:15.904Z,12.22
2023-07-27T05:09:15.907Z,12.20
2023-07-27T05:10:15.902Z,12.13
2023-07-27T05:11:15.850Z,12.13
2023-07-27T05:12:15.880Z,12.20
2023-07-27T05:13:15.842Z,12.18
2023-07-27T05:14:15.872Z,12.10
2023-07-27T05:15:15.858Z,12.13
2023-07-27T05:16:15.866Z,12.18
2023-07-27T05:17:15.818Z,12.24
2023-07-27T05:18:15.889Z,12.25
2023-07-27T05:19:15.808Z,12.24
2023-07-27T05:20:15.835Z,12.29
2023-07-27T05:21:15.797Z,12.24
2023-07-27T05:22:15.814Z,12.27
2023-07-27T05:23:15.768Z,12.32
2023-07-27T05:24:15.769Z,12.31
2023-07-27T05:25:15.760Z,12.31
2023-07-27T05:26:15.777Z,12.32
2023-07-27T05:27:15.726Z,12.40
2023-07-27T05:28:15.735Z,12.37
2023-07-27T05:29:15.723Z,12.45
2023-07-27T05:30:15.724Z,12.47
2023-07-27T05:31:15.744Z,12.46
2023-07-27T05:32:15.766Z,12.55
2023-07-27T05:33:15.685Z,12.57
2023-07-27T05:34:15.687Z,12.67
2023-07-27T05:35:15.678Z,12.55
2023-07-27T05:36:15.686Z,12.49
2023-07-27T05:37:15.675Z,12.47
2023-07-27T05:38:15.683Z,12.46
2023-07-27T05:39:15.633Z,12.53
2023-07-27T05:40:15.626Z,12.65
2023-07-27T05:41:15.607Z,12.72
2023-07-27T05:42:15.621Z,12.73
2023-07-27T05:43:15.591Z,12.76
2023-07-27T05:44:15.681Z,12.91
2023-07-27T05:45:15.573Z,12.86
2023-07-27T05:46:15.636Z,12.90
2023-07-27T05:47:15.568Z,13.00
2023-07-27T05:48:15.570Z,12.90
2023-07-27T05:49:15.572Z,12.97
2023-07-27T05:50:15.552Z,12.97
2023-07-27T05:51:15.590Z,13.04
2023-07-27T05:52:15.548Z,13.16
2023-07-27T05:53:15.509Z,13.20
2023-07-27T05:54:15.533Z,13.22
2023-07-27T05:55:15.497Z,13.37
2023-07-27T05:56:15.994Z,13.35
2023-07-27T05:57:15.501Z,13.33
2023-07-27T05:58:25.062Z,13.41
2023-07-27T05:59:16.470Z,13.35
2023-07-27T06:00:15.474Z,13.35
2023-07-27T06:01:15.464Z,13.25
2023-07-27T06:02:15.476Z,13.30
2023-07-27T06:03:15.448Z,13.30
2023-07-27T06:04:15.490Z,13.39
2023-07-27T06:05:15.437Z,13.38
2023-07-27T06:06:15.417Z,13.33
2023-07-27T06:07:15.412Z,13.37
2023-07-27T06:08:15.412Z,13.33
2023-07-27T06:09:15.391Z,13.33
2023-07-27T06:10:15.435Z,13.30
2023-07-27T06:11:15.375Z,13.27
2023-07-27T06:12:15.380Z,13.25
2023-07-27T06:13:15.364Z,13.23
2023-07-27T06:14:15.379Z,13.22
2023-07-27T06:15:15.349Z,13.25
2023-07-27T06:16:15.403Z,13.20
2023-07-27T06:17:15.351Z,13.16
2023-07-27T06:18:15.385Z,13.01
2023-07-27T06:19:15.317Z,13.15
2023-07-27T06:20:15.334Z,13.16
2023-07-27T06:21:15.299Z,13.20
2023-07-27T06:22:15.340Z,13.19
2023-07-27T06:23:15.280Z,13.13
2023-07-27T06:24:15.281Z,13.11
2023-07-27T06:25:15.282Z,13.08
2023-07-27T06:26:15.298Z,13.11
2023-07-27T06:27:15.268Z,12.97
2023-07-27T06:28:15.259Z,12.97
2023-07-27T06:29:15.222Z,13.00
2023-07-27T06:30:15.238Z,12.97
2023-07-27T06:31:15.268Z,13.03
2023-07-27T06:32:15.389Z,13.01
2023-07-27T06:33:15.376Z,13.01
2023-07-27T06:34:15.209Z,12.87
2023-07-27T06:35:15.178Z,12.79
2023-07-27T06:36:15.274Z,12.68
2023-07-27T06:37:15.180Z,12.72
2023-07-27T06:38:15.227Z,12.87
2023-07-27T06:39:15.153Z,12.79
2023-07-27T06:40:15.167Z,12.85
2023-07-27T06:41:15.169Z,12.94
2023-07-27T06:42:15.161Z,12.95
2023-07-27T06:43:15.132Z,13.08
2023-07-27T06:44:15.188Z,13.13
2023-07-27T06:45:15.134Z,13.09
2023-07-27T06:46:15.152Z,13.11
2023-07-27T06:47:15.178Z,13.22
2023-07-27T06:48:15.152Z,13.25
2023-07-27T06:49:15.092Z,13.25
2023-07-27T06:50:15.125Z,13.11
2023-07-27T06:51:15.088Z,13.30
2023-07-27T06:52:15.067Z,13.28
2023-07-27T06:53:15.043Z,13.22
2023-07-27T06:54:15.067Z,13.22
2023-07-27T06:55:15.051Z,13.15
2023-07-27T06:56:15.077Z,13.27
2023-07-27T06:57:15.030Z,13.28
2023-07-27T06:58:15.042Z,13.23
2023-07-27T06:59:15.015Z,13.22
2023-07-27T07:00:15.022Z,13.25
2023-07-27T07:01:15.044Z,13.19
2023-07-27T07:02:15.038Z,13.22
2023-07-27T07:03:15.124Z,13.37
2023-07-27T07:04:15.011Z,13.31
2023-07-27T07:05:14.966Z,13.37
2023-07-27T07:06:14.972Z,13.46
2023-07-27T07:07:14.943Z,13.28
2023-07-27T07:08:14.968Z,13.27
2023-07-27T07:09:14.950Z,13.23
2023-07-27T07:10:14.936Z,13.20
2023-07-27T07:11:14.935Z,13.25
2023-07-27T07:12:14.922Z,13.44
2023-07-27T07:13:14.922Z,13.56
2023-07-27T07:14:14.915Z,13.65
2023-07-27T07:15:14.882Z,13.81
2023-07-27T07:16:14.916Z,13.85
2023-07-27T07:17:14.919Z,13.78
2023-07-27T07:18:14.887Z,14.05
2023-07-27T07:19:14.843Z,14.07
2023-07-27T07:20:14.849Z,14.15
2023-07-27T07:21:14.826Z,14.08
2023-07-27T07:22:14.850Z,14.08
2023-07-27T07:23:14.812Z,14.15
2023-07-27T07:24:14.841Z,14.14
2023-07-27T07:25:14.861Z,14.18
2023-07-27T07:26:14.809Z,14.32
2023-07-27T07:27:14.779Z,14.45
2023-07-27T07:28:14.788Z,14.63
2023-07-27T07:29:14.758Z,14.72
2023-07-27T07:30:14.798Z,14.85
2023-07-27T07:31:14.892Z,15.03
2023-07-27T07:32:14.771Z,15.06
2023-07-27T07:33:14.727Z,15.02
2023-07-27T07:34:14.740Z,15.06
2023-07-27T07:35:14.717Z,15.15
2023-07-27T07:36:14.716Z,15.21
2023-07-27T07:37:14.695Z,15.24
2023-07-27T07:38:14.714Z,15.40
2023-07-27T07:39:14.706Z,15.46
2023-07-27T07:40:14.684Z,15.65
2023-07-27T07:41:14.674Z,15.58
2023-07-27T07:42:14.680Z,15.58
2023-07-27T07:43:14.687Z,15.68
2023-07-27T07:44:14.658Z,15.64
2023-07-27T07:45:14.638Z,15.55
2023-07-27T07:46:14.664Z,15.54
2023-07-27T07:47:14.610Z,15.59
2023-07-27T07:48:14.612Z,15.59
2023-07-27T07:49:14.602Z,15.67
2023-07-27T07:50:14.585Z,15.54
2023-07-27T07:51:14.589Z,15.68
2023-07-27T07:52:14.587Z,15.61
2023-07-27T07:53:22.544Z,15.59
2023-07-27T07:54:15.552Z,15.68
2023-07-27T07:55:14.527Z,15.58
2023-07-27T07:56:14.664Z,15.58
2023-07-27T07:57:14.526Z,15.62
2023-07-27T07:58:14.512Z,15.58
2023-07-27T07:59:14.532Z,15.73
2023-07-27T08:00:14.828Z,15.73
2023-07-27T08:01:14.498Z,15.83
2023-07-27T08:02:14.520Z,15.94
2023-07-27T08:03:14.568Z,15.95
2023-07-27T08:04:14.505Z,16.08
2023-07-27T08:05:14.440Z,16.12
2023-07-27T08:06:14.448Z,16.08
2023-07-27T08:07:14.450Z,16.08
2023-07-27T08:08:14.460Z,16.10
2023-07-27T08:09:14.440Z,16.15
2023-07-27T08:10:14.448Z,16.08
2023-07-27T08:11:14.404Z,15.95
2023-07-27T08:12:14.480Z,15.58
2023-07-27T08:13:14.425Z,15.72
2023-07-27T08:14:14.400Z,15.67
2023-07-27T08:15:14.393Z,15.65
2023-07-27T08:16:14.396Z,15.62
2023-07-27T08:17:14.399Z,15.68
2023-07-27T08:18:14.386Z,15.64
2023-07-27T08:19:14.372Z,15.65
2023-07-27T08:20:14.366Z,15.65
2023-07-27T08:21:14.322Z,15.64
2023-07-27T08:22:14.336Z,15.58
2023-07-27T08:23:14.322Z,15.64
2023-07-27T08:24:14.316Z,15.64
2023-07-27T08:25:21.412Z,15.51
2023-07-27T08:26:15.306Z,15.62
2023-07-27T08:27:14.287Z,15.68
2023-07-27T08:28:14.327Z,15.67
2023-07-27T08:29:14.252Z,15.64
2023-07-27T08:30:14.281Z,15.68
2023-07-27T08:31:14.285Z,15.75
2023-07-27T08:32:14.245Z,15.80
2023-07-27T08:33:14.241Z,15.88
2023-07-27T08:34:14.255Z,15.88
2023-07-27T08:35:14.217Z,15.82
2023-07-27T08:36:14.291Z,15.90
2023-07-27T08:37:14.208Z,16.10
2023-07-27T08:38:14.198Z,16.13
2023-07-27T08:39:14.188Z,16.17
2023-07-27T08:40:14.230Z,16.01
2023-07-27T08:41:14.189Z,15.92
2023-07-27T08:42:14.194Z,15.98
2023-07-27T08:43:14.138Z,15.88
2023-07-27T08:44:14.159Z,15.80
2023-07-27T08:45:14.241Z,15.82
2023-07-27T08:46:14.200Z,15.72
2023-07-27T08:47:14.112Z,15.72
2023-07-27T08:48:14.153Z,15.65
2023-07-27T08:49:14.090Z,15.73
2023-07-27T08:50:14.641Z,15.68
2023-07-27T08:51:14.071Z,15.75
2023-07-27T08:52:14.084Z,15.79
2023-07-27T08:53:14.067Z,15.82
2023-07-27T08:54:14.129Z,15.80
2023-07-27T08:55:14.030Z,15.70
2023-07-27T08:56:14.066Z,15.80
2023-07-27T08:57:14.009Z,15.86
2023-07-27T08:58:14.016Z,15.79
2023-07-27T08:59:14.011Z,15.75
2023-07-27T09:00:14.024Z,15.84
2023-07-27T09:01:14.066Z,15.73
2023-07-27T09:02:14.020Z,15.62
2023-07-27T09:03:14.041Z,15.54
2023-07-27T09:04:16.167Z,15.47
2023-07-27T09:05:14.002Z,15.43
2023-07-27T09:06:14.020Z,15.42
2023-07-27T09:07:13.943Z,15.39
2023-07-27T09:08:13.953Z,15.46
2023-07-27T09:09:13.948Z,15.54
2023-07-27T09:10:13.961Z,15.61
2023-07-27T09:11:13.969Z,15.62
2023-07-27T09:12:13.905Z,15.62
2023-07-27T09:13:13.921Z,15.58
2023-07-27T09:14:13.888Z,15.54
2023-07-27T09:15:13.875Z,15.51
2023-07-27T09:16:13.911Z,15.57
2023-07-27T09:17:13.850Z,15.65
2023-07-27T09:18:13.884Z,15.73
2023-07-27T09:19:13.836Z,15.68
2023-07-27T09:20:13.827Z,15.70
2023-07-27T09:21:13.811Z,15.49
2023-07-27T09:22:13.819Z,15.57
2023-07-27T09:23:13.797Z,15.61
2023-07-27T09:24:13.834Z,15.73
2023-07-27T09:25:13.802Z,15.73
2023-07-27T09:26:13.783Z,15.75
2023-07-27T09:27:13.784Z,15.65
2023-07-27T09:28:13.787Z,15.57
2023-07-27T09:29:13.737Z,15.70
2023-07-27T09:30:13.779Z,15.59
2023-07-27T09:31:13.778Z,15.67
2023-07-27T09:32:13.735Z,15.64
2023-07-27T09:33:13.765Z,15.67
2023-07-27T09:34:13.724Z,15.72
2023-07-27T09:35:13.728Z,15.70
2023-07-27T09:36:14.075Z,15.65
2023-07-27T09:37:13.661Z,15.64
2023-07-27T09:38:13.682Z,15.68
2023-07-27T09:39:13.697Z,15.54
2023-07-27T09:40:13.706Z,15.51
2023-07-27T09:41:13.638Z,15.55
2023-07-27T09:42:13.656Z,15.49
2023-07-27T09:43:13.656Z,15.47
2023-07-27T09:44:13.641Z,15.54
2023-07-27T09:45:13.622Z,15.59
2023-07-27T09:46:13.780Z,15.61
2023-07-27T09:47:13.582Z,15.46
2023-07-27T09:48:13.626Z,15.49
2023-07-27T09:49:13.593Z,15.46
2023-07-27T09:50:13.610Z,15.57
2023-07-27T09:51:13.560Z,15.49
2023-07-27T09:52:13.568Z,15.40
2023-07-27T09:53:13.564Z,15.46
2023-07-27T09:54:13.602Z,15.52
2023-07-27T09:55:13.526Z,15.40
2023-07-27T09:56:13.540Z,15.46
2023-07-27T09:57:13.505Z,15.46
2023-07-27T09:58:13.534Z,15.37
2023-07-27T09:59:13.485Z,15.29
2023-07-27T10:00:13.492Z,15.27
2023-07-27T10:01:13.562Z,15.22
2023-07-27T10:02:13.524Z,15.15
2023-07-27T10:03:13.509Z,15.09
2023-07-27T10:04:13.480Z,14.99
2023-07-27T10:05:13.492Z,15.14
2023-07-27T10:06:13.433Z,15.06
2023-07-27T10:07:13.457Z,15.17
2023-07-27T10:08:13.418Z,15.11
2023-07-27T10:09:13.419Z,15.11
2023-07-27T10:10:13.395Z,15.14
2023-07-27T10:11:13.388Z,15.15
2023-07-27T10:12:13.403Z,15.11
2023-07-27T10:13:13.398Z,15.07
2023-07-27T10:14:13.365Z,15.03
2023-07-27T10:15:13.366Z,15.06
2023-07-27T10:16:13.489Z,15.06
2023-07-27T10:17:13.336Z,15.00
2023-07-27T10:18:13.327Z,14.96
2023-07-27T10:19:13.349Z,15.09
2023-07-27T10:20:13.321Z,15.03
2023-07-27T10:21:13.306Z,15.00
2023-07-27T10:22:13.304Z,14.97
2023-07-27T10:23:13.311Z,14.96
2023-07-27T10:24:13.332Z,14.96
2023-07-27T10:25:13.261Z,14.96
2023-07-27T10:26:13.288Z,15.04
2023-07-27T10:27:13.235Z,14.99
2023-07-27T10:28:13.273Z,14.99
2023-07-27T10:29:13.243Z,14.92
2023-07-27T10:30:13.254Z,14.97
2023-07-27T10:31:13.315Z,15.00
2023-07-27T10:32:13.246Z,15.10
2023-07-27T10:33:13.183Z,15.17
2023-07-27T10:35:13.171Z,15.22
2023-07-27T10:36:13.190Z,15.18
2023-07-27T10:37:13.164Z,15.22
2023-07-27T10:38:13.171Z,15.28
2023-07-27T10:39:13.137Z,15.35
2023-07-27T10:40:13.160Z,15.19
2023-07-27T10:41:13.125Z,15.31
2023-07-27T10:42:13.185Z,15.27
2023-07-27T10:43:13.101Z,15.27
2023-07-27T10:44:14.138Z,15.29
2023-07-27T10:45:13.124Z,15.35
2023-07-27T10:46:13.110Z,15.37
2023-07-27T10:47:13.080Z,15.47
2023-07-27T10:48:13.091Z,15.57
2023-07-27T10:49:13.049Z,15.57
2023-07-27T10:50:13.087Z,15.51
2023-07-27T10:51:13.035Z,15.61
2023-07-27T10:52:13.052Z,15.59
2023-07-27T10:53:13.041Z,15.54
2023-07-27T10:54:13.032Z,15.54
2023-07-27T10:55:13.023Z,15.52
2023-07-27T10:56:13.010Z,15.51
2023-07-27T10:57:13.016Z,15.35
2023-07-27T10:58:13.013Z,15.42
2023-07-27T10:59:12.962Z,15.43
2023-07-27T11:00:12.980Z,15.42
2023-07-27T11:01:12.986Z,15.42
2023-07-27T11:02:13.008Z,15.42
2023-07-27T11:03:13.043Z,15.37
2023-07-27T11:04:12.956Z,15.39
2023-07-27T11:05:12.938Z,15.49
2023-07-27T11:06:13.669Z,15.55
2023-07-27T11:07:12.911Z,15.57
2023-07-27T11:08:12.904Z,15.54
2023-07-27T11:09:12.928Z,15.44
2023-07-27T11:10:12.967Z,15.44
2023-07-27T11:11:12.877Z,15.54
2023-07-27T11:12:12.882Z,15.51
2023-07-27T11:13:12.867Z,15.46
2023-07-27T11:14:12.891Z,15.51
2023-07-27T11:15:12.872Z,15.54
2023-07-27T11:16:13.802Z,15.51
2023-07-27T11:17:12.900Z,15.42
2023-07-27T11:18:12.851Z,15.65
2023-07-27T11:19:12.814Z,15.52
2023-07-27T11:20:12.902Z,15.64
2023-07-27T11:21:12.813Z,15.62
2023-07-27T11:22:14.739Z,15.67
2023-07-27T11:23:12.785Z,15.52
2023-07-27T11:24:12.794Z,15.62
2023-07-27T11:25:12.779Z,15.61
2023-07-27T11:26:12.783Z,15.58
2023-07-27T11:27:12.779Z,15.62
2023-07-27T11:28:12.774Z,15.51
2023-07-27T11:29:12.733Z,15.64
2023-07-27T11:30:12.873Z,15.58
2023-07-27T11:31:12.729Z,15.61
2023-07-27T11:32:12.750Z,15.59
2023-07-27T11:33:12.731Z,15.58
2023-07-27T11:34:12.723Z,15.59
2023-07-27T11:35:12.687Z,15.72
2023-07-27T11:36:12.681Z,15.67
2023-07-27T11:37:12.663Z,15.62
2023-07-27T11:38:12.725Z,15.64
2023-07-27T11:39:12.700Z,15.76
2023-07-27T11:40:12.690Z,15.72
2023-07-27T11:41:41.314Z,15.75
2023-07-27T11:42:13.664Z,15.75
2023-07-27T11:43:12.627Z,15.83
2023-07-27T11:44:12.621Z,15.77
2023-07-27T11:45:12.589Z,15.84
2023-07-27T11:46:12.625Z,15.80
2023-07-27T11:47:12.608Z,15.90
2023-07-27T11:48:12.633Z,15.84
2023-07-27T11:49:12.611Z,15.79
2023-07-27T11:50:12.702Z,15.77
2023-07-27T11:51:12.564Z,15.76
2023-07-27T11:52:12.582Z,15.77
2023-07-27T11:53:17.555Z,15.75
2023-07-27T11:54:13.573Z,15.68
2023-07-27T11:55:12.549Z,15.76
2023-07-27T11:56:12.563Z,15.72
2023-07-27T11:57:12.491Z,15.72
2023-07-27T11:58:12.518Z,15.76
2023-07-27T11:59:12.486Z,15.65
2023-07-27T12:00:12.509Z,15.75
2023-07-27T12:01:12.500Z,15.68
2023-07-27T12:02:12.555Z,15.68
2023-07-27T12:03:23.184Z,15.67
2023-07-27T12:04:13.527Z,15.75
2023-07-27T12:05:12.464Z,15.75
2023-07-27T12:06:12.452Z,15.80
2023-07-27T12:07:12.476Z,15.64
2023-07-27T12:08:44.440Z,15.62
2023-07-27T12:09:13.397Z,15.64
2023-07-27T12:10:14.289Z,15.61
2023-07-27T12:11:40.851Z,15.67
2023-07-27T12:12:13.405Z,15.64
2023-07-27T12:14:12.405Z,15.79
2023-07-27T12:15:12.386Z,15.73
2023-07-27T12:18:12.423Z,15.83
2023-07-27T12:31:15.783Z,16.17
2023-07-27T12:32:13.254Z,16.12
2023-07-27T12:33:12.214Z,16.08
2023-07-27T12:34:13.525Z,16.13
2023-07-27T12:36:12.198Z,16.09
2023-07-27T12:39:12.146Z,16.08
2023-07-27T12:40:12.173Z,16.13
2023-07-27T12:41:12.141Z,16.05
2023-07-27T12:43:12.156Z,16.00
2023-07-27T12:44:12.124Z,15.94
2023-07-27T12:45:12.116Z,16.05
2023-07-27T12:46:12.162Z,16.13
2023-07-27T12:47:12.125Z,16.13
2023-07-27T12:48:12.172Z,16.09
2023-07-27T12:49:12.083Z,16.10
2023-07-27T12:50:12.073Z,16.15
2023-07-27T12:51:12.083Z,16.29
2023-07-27T12:52:12.056Z,16.36
2023-07-27T12:53:12.043Z,16.36
2023-07-27T12:54:12.037Z,16.29
2023-07-27T12:55:12.034Z,16.39
2023-07-27T12:56:12.080Z,16.35
2023-07-27T12:57:12.006Z,16.32
2023-07-27T12:58:12.018Z,16.42
2023-07-27T12:59:11.985Z,16.46
2023-07-27T13:00:11.993Z,16.38
2023-07-27T13:01:11.968Z,16.49
2023-07-27T13:02:12.018Z,16.39
2023-07-27T13:03:12.103Z,16.46
2023-07-27T13:04:11.958Z,16.51
2023-07-27T13:05:11.935Z,16.41
2023-07-27T13:06:11.956Z,16.46
2023-07-27T13:07:11.934Z,16.39
2023-07-27T13:08:11.927Z,16.43
2023-07-27T13:09:11.929Z,16.42
2023-07-27T13:10:11.918Z,16.47
2023-07-27T13:11:11.897Z,16.46
2023-07-27T13:12:11.913Z,16.46
2023-07-27T13:13:11.882Z,16.61
2023-07-27T13:14:11.897Z,16.46